sensor_id;sensor_type;location;lat;lon;timestamp;P1;durP1;ratioP1;P2;durP2;ratioP2
27161;SDS011;54464;50.558;9.704;2023-07-28T00:01:05;4.83;;;4.43;;
27161;SDS011;54464;50.558;9.704;2023-07-28T00:03:30;4.83;;;4.33;;
27161;SDS011;54464;50.558;9.704;2023-07-28T00:05:56;5.40;;;4.37;;
27161;SDS011;54464;50.558;9.704;2023-07-28T00:08:21;4.63;;;4.13;;
27161;SDS011;54464;50.558;9.704;2023-07-28T00:10:47;5.43;;;3.60;;
27161;SDS011;54464;50.558;9.704;2023-07-28T00:13:12;4.40;;;3.80;;
27161;SDS011;54464;50.558;9.704;2023-07-28T00:15:38;4.50;;;3.47;;
27161;SDS011;54464;50.558;9.704;2023-07-28T00:18:03;3.83;;;3.43;;
27161;SDS011;54464;50.558;9.704;2023-07-28T00:20:29;4.67;;;3.33;;
27161;SDS011;54464;50.558;9.704;2023-07-28T00:22:55;3.80;;;3.50;;
27161;SDS011;54464;50.558;9.704;2023-07-28T00:25:20;3.80;;;3.40;;
27161;SDS011;54464;50.558;9.704;2023-07-28T00:27:47;3.87;;;3.37;;
27161;SDS011;54464;50.558;9.704;2023-07-28T00:30:12;3.50;;;3.20;;
27161;SDS011;54464;50.558;9.704;2023-07-28T00:32:38;3.13;;;2.83;;
27161;SDS011;54464;50.558;9.704;2023-07-28T00:35:04;2.63;;;2.43;;
27161;SDS011;54464;50.558;9.704;2023-07-28T00:37:29;3.07;;;2.77;;
27161;SDS011;54464;50.558;9.704;2023-07-28T00:39:55;3.63;;;3.17;;
27161;SDS011;54464;50.558;9.704;2023-07-28T00:42:21;3.67;;;2.80;;
27161;SDS011;54464;50.558;9.704;2023-07-28T00:44:46;3.10;;;2.80;;
27161;SDS011;54464;50.558;9.704;2023-07-28T00:47:12;3.70;;;3.03;;
27161;SDS011;54464;50.558;9.704;2023-07-28T00:49:39;3.27;;;2.83;;
27161;SDS011;54464;50.558;9.704;2023-07-28T00:52:06;3.17;;;2.80;;
27161;SDS011;54464;50.558;9.704;2023-07-28T00:54:32;2.97;;;2.67;;
27161;SDS011;54464;50.558;9.704;2023-07-28T00:56:58;2.83;;;2.50;;
27161;SDS011;54464;50.558;9.704;2023-07-28T00:59:24;4.80;;;2.50;;
27161;SDS011;54464;50.558;9.704;2023-07-28T01:01:50;3.90;;;2.80;;
27161;SDS011;54464;50.558;9.704;2023-07-28T01:04:16;2.97;;;2.57;;
27161;SDS011;54464;50.558;9.704;2023-07-28T01:06:51;4.27;;;3.20;;
27161;SDS011;54464;50.558;9.704;2023-07-28T01:09:27;2.83;;;2.57;;
27161;SDS011;54464;50.558;9.704;2023-07-28T01:11:59;3.93;;;2.87;;
27161;SDS011;54464;50.558;9.704;2023-07-28T01:14:26;3.07;;;2.70;;
27161;SDS011;54464;50.558;9.704;2023-07-28T01:16:52;3.60;;;3.10;;
27161;SDS011;54464;50.558;9.704;2023-07-28T01:19:17;3.47;;;2.80;;
27161;SDS011;54464;50.558;9.704;2023-07-28T01:21:46;3.97;;;3.40;;
27161;SDS011;54464;50.558;9.704;2023-07-28T01:24:15;5.47;;;3.10;;
27161;SDS011;54464;50.558;9.704;2023-07-28T01:26:48;4.93;;;4.03;;
27161;SDS011;54464;50.558;9.704;2023-07-28T01:29:16;5.73;;;3.80;;
27161;SDS011;54464;50.558;9.704;2023-07-28T01:31:45;5.03;;;4.53;;
27161;SDS011;54464;50.558;9.704;2023-07-28T01:34:12;5.97;;;3.83;;
27161;SDS011;54464;50.558;9.704;2023-07-28T01:36:38;5.63;;;3.87;;
27161;SDS011;54464;50.558;9.704;2023-07-28T01:39:03;6.27;;;3.37;;
27161;SDS011;54464;50.558;9.704;2023-07-28T01:41:29;3.47;;;3.03;;
27161;SDS011;54464;50.558;9.704;2023-07-28T01:43:54;5.53;;;3.83;;
27161;SDS011;54464;50.558;9.704;2023-07-28T01:46:20;4.77;;;4.23;;
27161;SDS011;54464;50.558;9.704;2023-07-28T01:48:47;4.40;;;4.00;;
27161;SDS011;54464;50.558;9.704;2023-07-28T01:51:12;5.10;;;4.60;;
27161;SDS011;54464;50.558;9.704;2023-07-28T01:53:38;6.43;;;4.53;;
27161;SDS011;54464;50.558;9.704;2023-07-28T01:56:04;6.90;;;4.80;;
27161;SDS011;54464;50.558;9.704;2023-07-28T01:58:29;6.80;;;5.23;;
27161;SDS011;54464;50.558;9.704;2023-07-28T02:00:55;15.43;;;5.20;;
27161;SDS011;54464;50.558;9.704;2023-07-28T02:03:20;5.97;;;5.37;;
27161;SDS011;54464;50.558;9.704;2023-07-28T02:05:46;9.00;;;4.93;;
27161;SDS011;54464;50.558;9.704;2023-07-28T02:08:11;4.67;;;4.17;;
27161;SDS011;54464;50.558;9.704;2023-07-28T02:10:37;4.20;;;3.80;;
27161;SDS011;54464;50.558;9.704;2023-07-28T02:13:03;6.80;;;4.47;;
27161;SDS011;54464;50.558;9.704;2023-07-28T02:15:28;4.43;;;3.83;;
27161;SDS011;54464;50.558;9.704;2023-07-28T02:17:54;5.07;;;4.20;;
27161;SDS011;54464;50.558;9.704;2023-07-28T02:20:19;5.00;;;4.50;;
27161;SDS011;54464;50.558;9.704;2023-07-28T02:22:45;6.10;;;4.23;;
27161;SDS011;54464;50.558;9.704;2023-07-28T02:25:11;6.57;;;5.00;;
27161;SDS011;54464;50.558;9.704;2023-07-28T02:27:37;8.97;;;5.17;;
27161;SDS011;54464;50.558;9.704;2023-07-28T02:30:03;6.20;;;5.47;;
27161;SDS011;54464;50.558;9.704;2023-07-28T02:32:30;6.23;;;5.43;;
27161;SDS011;54464;50.558;9.704;2023-07-28T02:34:56;5.33;;;4.83;;
27161;SDS011;54464;50.558;9.704;2023-07-28T02:37:22;4.80;;;4.30;;
27161;SDS011;54464;50.558;9.704;2023-07-28T02:39:47;4.57;;;3.70;;
27161;SDS011;54464;50.558;9.704;2023-07-28T02:42:13;3.60;;;3.30;;
27161;SDS011;54464;50.558;9.704;2023-07-28T02:44:38;3.10;;;2.30;;
27161;SDS011;54464;50.558;9.704;2023-07-28T02:47:04;3.43;;;2.47;;
27161;SDS011;54464;50.558;9.704;2023-07-28T02:49:30;3.70;;;2.10;;
27161;SDS011;54464;50.558;9.704;2023-07-28T02:51:56;2.93;;;2.10;;
27161;SDS011;54464;50.558;9.704;2023-07-28T02:54:22;2.70;;;2.00;;
27161;SDS011;54464;50.558;9.704;2023-07-28T02:56:49;2.80;;;2.23;;
27161;SDS011;54464;50.558;9.704;2023-07-28T02:59:14;2.90;;;2.60;;
27161;SDS011;54464;50.558;9.704;2023-07-28T03:01:40;3.57;;;3.00;;
27161;SDS011;54464;50.558;9.704;2023-07-28T03:04:06;4.00;;;3.60;;
27161;SDS011;54464;50.558;9.704;2023-07-28T03:06:31;3.50;;;3.20;;
27161;SDS011;54464;50.558;9.704;2023-07-28T03:08:58;4.77;;;3.50;;
27161;SDS011;54464;50.558;9.704;2023-07-28T03:11:24;4.77;;;3.77;;
27161;SDS011;54464;50.558;9.704;2023-07-28T03:13:49;5.33;;;4.23;;
27161;SDS011;54464;50.558;9.704;2023-07-28T03:16:15;4.47;;;3.93;;
27161;SDS011;54464;50.558;9.704;2023-07-28T03:18:40;4.50;;;4.00;;
27161;SDS011;54464;50.558;9.704;2023-07-28T03:21:08;4.43;;;4.03;;
27161;SDS011;54464;50.558;9.704;2023-07-28T03:23:34;4.40;;;3.53;;
27161;SDS011;54464;50.558;9.704;2023-07-28T03:25:59;3.93;;;2.83;;
27161;SDS011;54464;50.558;9.704;2023-07-28T03:28:25;4.00;;;3.00;;
27161;SDS011;54464;50.558;9.704;2023-07-28T03:30:50;3.77;;;3.40;;
27161;SDS011;54464;50.558;9.704;2023-07-28T03:33:16;4.37;;;3.73;;
27161;SDS011;54464;50.558;9.704;2023-07-28T03:35:42;4.17;;;3.57;;
27161;SDS011;54464;50.558;9.704;2023-07-28T03:38:07;5.43;;;4.57;;
27161;SDS011;54464;50.558;9.704;2023-07-28T03:40:41;4.90;;;4.40;;
27161;SDS011;54464;50.558;9.704;2023-07-28T03:43:08;5.07;;;4.03;;
27161;SDS011;54464;50.558;9.704;2023-07-28T03:45:34;4.23;;;3.70;;
27161;SDS011;54464;50.558;9.704;2023-07-28T03:48:00;3.53;;;3.23;;
27161;SDS011;54464;50.558;9.704;2023-07-28T03:50:25;4.03;;;3.50;;
27161;SDS011;54464;50.558;9.704;2023-07-28T03:52:51;5.30;;;4.10;;
27161;SDS011;54464;50.558;9.704;2023-07-28T03:55:17;4.57;;;3.90;;
27161;SDS011;54464;50.558;9.704;2023-07-28T03:57:42;3.30;;;3.00;;
27161;SDS011;54464;50.558;9.704;2023-07-28T04:00:08;4.33;;;3.73;;
27161;SDS011;54464;50.558;9.704;2023-07-28T04:02:34;5.37;;;3.90;;
27161;SDS011;54464;50.558;9.704;2023-07-28T04:05:00;4.40;;;3.97;;
27161;SDS011;54464;50.558;9.704;2023-07-28T04:07:25;4.30;;;3.90;;
27161;SDS011;54464;50.558;9.704;2023-07-28T04:09:51;3.77;;;3.47;;
27161;SDS011;54464;50.558;9.704;2023-07-28T04:12:16;4.00;;;3.50;;
27161;SDS011;54464;50.558;9.704;2023-07-28T04:14:42;4.93;;;3.60;;
27161;SDS011;54464;50.558;9.704;2023-07-28T04:17:07;4.40;;;4.00;;
27161;SDS011;54464;50.558;9.704;2023-07-28T04:19:33;4.50;;;4.10;;
27161;SDS011;54464;50.558;9.704;2023-07-28T04:21:59;5.00;;;4.50;;
27161;SDS011;54464;50.558;9.704;2023-07-28T04:24:25;4.53;;;4.13;;
27161;SDS011;54464;50.558;9.704;2023-07-28T04:26:51;4.80;;;4.33;;
27161;SDS011;54464;50.558;9.704;2023-07-28T04:29:17;4.90;;;4.40;;
27161;SDS011;54464;50.558;9.704;2023-07-28T04:31:42;5.00;;;4.50;;
27161;SDS011;54464;50.558;9.704;2023-07-28T04:34:08;5.30;;;3.87;;
27161;SDS011;54464;50.558;9.704;2023-07-28T04:36:34;4.10;;;3.70;;
27161;SDS011;54464;50.558;9.704;2023-07-28T04:38:59;3.80;;;3.40;;
27161;SDS011;54464;50.558;9.704;2023-07-28T04:41:25;4.00;;;3.60;;
27161;SDS011;54464;50.558;9.704;2023-07-28T04:43:50;4.23;;;3.30;;
27161;SDS011;54464;50.558;9.704;2023-07-28T04:46:16;4.57;;;4.00;;
27161;SDS011;54464;50.558;9.704;2023-07-28T04:48:41;4.53;;;4.13;;
27161;SDS011;54464;50.558;9.704;2023-07-28T04:51:07;5.03;;;4.53;;
27161;SDS011;54464;50.558;9.704;2023-07-28T04:53:33;5.90;;;5.00;;
27161;SDS011;54464;50.558;9.704;2023-07-28T04:55:58;6.30;;;5.10;;
27161;SDS011;54464;50.558;9.704;2023-07-28T04:58:24;4.97;;;4.50;;
27161;SDS011;54464;50.558;9.704;2023-07-28T05:00:49;5.13;;;4.63;;
27161;SDS011;54464;50.558;9.704;2023-07-28T05:03:15;4.70;;;4.20;;
27161;SDS011;54464;50.558;9.704;2023-07-28T05:05:43;5.03;;;4.57;;
27161;SDS011;54464;50.558;9.704;2023-07-28T05:08:09;4.50;;;4.10;;
27161;SDS011;54464;50.558;9.704;2023-07-28T05:10:35;4.50;;;4.10;;
27161;SDS011;54464;50.558;9.704;2023-07-28T05:13:01;5.20;;;4.37;;
27161;SDS011;54464;50.558;9.704;2023-07-28T05:15:29;4.13;;;3.63;;
27161;SDS011;54464;50.558;9.704;2023-07-28T05:17:55;4.50;;;4.10;;
27161;SDS011;54464;50.558;9.704;2023-07-28T05:20:20;4.63;;;4.00;;
27161;SDS011;54464;50.558;9.704;2023-07-28T05:22:46;5.40;;;3.83;;
27161;SDS011;54464;50.558;9.704;2023-07-28T05:25:12;5.90;;;4.20;;
27161;SDS011;54464;50.558;9.704;2023-07-28T05:27:37;4.43;;;4.03;;
27161;SDS011;54464;50.558;9.704;2023-07-28T05:30:03;5.27;;;4.40;;
27161;SDS011;54464;50.558;9.704;2023-07-28T05:32:29;6.53;;;4.63;;
27161;SDS011;54464;50.558;9.704;2023-07-28T05:34:54;5.40;;;4.50;;
27161;SDS011;54464;50.558;9.704;2023-07-28T05:37:20;5.93;;;4.90;;
27161;SDS011;54464;50.558;9.704;2023-07-28T05:39:45;5.83;;;5.23;;
27161;SDS011;54464;50.558;9.704;2023-07-28T05:42:11;5.50;;;4.30;;
27161;SDS011;54464;50.558;9.704;2023-07-28T05:44:36;4.60;;;4.20;;
27161;SDS011;54464;50.558;9.704;2023-07-28T05:47:02;5.30;;;3.93;;
27161;SDS011;54464;50.558;9.704;2023-07-28T05:49:28;3.93;;;3.63;;
27161;SDS011;54464;50.558;9.704;2023-07-28T05:51:53;3.60;;;3.30;;
27161;SDS011;54464;50.558;9.704;2023-07-28T05:54:19;2.77;;;2.50;;
27161;SDS011;54464;50.558;9.704;2023-07-28T05:56:44;2.73;;;2.13;;
27161;SDS011;54464;50.558;9.704;2023-07-28T05:59:10;3.77;;;2.73;;
27161;SDS011;54464;50.558;9.704;2023-07-28T06:01:35;2.90;;;2.70;;
27161;SDS011;54464;50.558;9.704;2023-07-28T06:04:01;3.00;;;2.50;;
27161;SDS011;54464;50.558;9.704;2023-07-28T06:06:26;2.80;;;2.60;;
27161;SDS011;54464;50.558;9.704;2023-07-28T06:08:52;3.00;;;2.67;;
27161;SDS011;54464;50.558;9.704;2023-07-28T06:11:18;2.53;;;2.33;;
27161;SDS011;54464;50.558;9.704;2023-07-28T06:13:45;2.60;;;2.40;;
27161;SDS011;54464;50.558;9.704;2023-07-28T06:16:11;2.50;;;2.30;;
27161;SDS011;54464;50.558;9.704;2023-07-28T06:18:37;3.10;;;2.50;;
27161;SDS011;54464;50.558;9.704;2023-07-28T06:21:03;3.50;;;3.20;;
27161;SDS011;54464;50.558;9.704;2023-07-28T06:23:28;3.23;;;2.93;;
27161;SDS011;54464;50.558;9.704;2023-07-28T06:25:54;4.10;;;3.70;;
27161;SDS011;54464;50.558;9.704;2023-07-28T06:28:20;4.10;;;3.80;;
27161;SDS011;54464;50.558;9.704;2023-07-28T06:30:45;3.90;;;3.60;;
27161;SDS011;54464;50.558;9.704;2023-07-28T06:33:11;4.57;;;3.57;;
27161;SDS011;54464;50.558;9.704;2023-07-28T06:35:37;4.20;;;3.80;;
27161;SDS011;54464;50.558;9.704;2023-07-28T06:38:03;4.50;;;4.10;;
27161;SDS011;54464;50.558;9.704;2023-07-28T06:40:29;4.20;;;3.80;;
27161;SDS011;54464;50.558;9.704;2023-07-28T06:42:55;3.60;;;3.30;;
27161;SDS011;54464;50.558;9.704;2023-07-28T06:45:20;3.73;;;3.40;;
27161;SDS011;54464;50.558;9.704;2023-07-28T06:47:46;3.80;;;3.37;;
27161;SDS011;54464;50.558;9.704;2023-07-28T06:50:12;3.97;;;3.67;;
27161;SDS011;54464;50.558;9.704;2023-07-28T06:52:38;4.50;;;4.10;;
27161;SDS011;54464;50.558;9.704;2023-07-28T06:55:04;4.03;;;3.53;;
27161;SDS011;54464;50.558;9.704;2023-07-28T06:57:30;4.10;;;3.70;;
27161;SDS011;54464;50.558;9.704;2023-07-28T06:59:56;3.90;;;3.60;;
27161;SDS011;54464;50.558;9.704;2023-07-28T07:02:22;4.27;;;3.87;;
27161;SDS011;54464;50.558;9.704;2023-07-28T07:04:50;4.60;;;4.07;;
27161;SDS011;54464;50.558;9.704;2023-07-28T07:07:16;4.00;;;3.70;;
27161;SDS011;54464;50.558;9.704;2023-07-28T07:09:41;3.93;;;3.60;;
27161;SDS011;54464;50.558;9.704;2023-07-28T07:12:10;4.27;;;3.87;;
27161;SDS011;54464;50.558;9.704;2023-07-28T07:14:36;5.00;;;4.50;;
27161;SDS011;54464;50.558;9.704;2023-07-28T07:17:01;4.50;;;4.10;;
27161;SDS011;54464;50.558;9.704;2023-07-28T07:19:28;4.63;;;4.23;;
27161;SDS011;54464;50.558;9.704;2023-07-28T07:21:54;4.73;;;4.33;;
27161;SDS011;54464;50.558;9.704;2023-07-28T07:24:20;4.40;;;4.00;;
27161;SDS011;54464;50.558;9.704;2023-07-28T07:26:46;4.93;;;3.77;;
27161;SDS011;54464;50.558;9.704;2023-07-28T07:29:11;4.87;;;4.10;;
27161;SDS011;54464;50.558;9.704;2023-07-28T07:31:37;4.00;;;3.67;;
27161;SDS011;54464;50.558;9.704;2023-07-28T07:34:03;4.43;;;3.70;;
27161;SDS011;54464;50.558;9.704;2023-07-28T07:36:29;3.60;;;3.30;;
27161;SDS011;54464;50.558;9.704;2023-07-28T07:38:55;3.70;;;3.40;;
27161;SDS011;54464;50.558;9.704;2023-07-28T07:41:21;3.83;;;3.53;;
27161;SDS011;54464;50.558;9.704;2023-07-28T07:43:48;3.87;;;3.57;;
27161;SDS011;54464;50.558;9.704;2023-07-28T07:46:14;3.90;;;3.60;;
27161;SDS011;54464;50.558;9.704;2023-07-28T07:48:41;4.13;;;3.73;;
27161;SDS011;54464;50.558;9.704;2023-07-28T07:51:07;4.90;;;3.43;;
27161;SDS011;54464;50.558;9.704;2023-07-28T07:53:33;2.70;;;2.50;;
27161;SDS011;54464;50.558;9.704;2023-07-28T07:55:59;2.70;;;2.50;;
27161;SDS011;54464;50.558;9.704;2023-07-28T07:58:24;2.17;;;2.07;;
27161;SDS011;54464;50.558;9.704;2023-07-28T08:00:50;2.50;;;2.30;;
27161;SDS011;54464;50.558;9.704;2023-07-28T08:03:16;2.47;;;2.20;;
27161;SDS011;54464;50.558;9.704;2023-07-28T08:05:41;2.63;;;2.43;;
27161;SDS011;54464;50.558;9.704;2023-07-28T08:08:07;2.80;;;2.10;;
27161;SDS011;54464;50.558;9.704;2023-07-28T08:10:33;2.17;;;1.93;;
27161;SDS011;54464;50.558;9.704;2023-07-28T08:12:59;1.80;;;1.70;;
27161;SDS011;54464;50.558;9.704;2023-07-28T08:15:25;1.40;;;1.30;;
27161;SDS011;54464;50.558;9.704;2023-07-28T08:17:51;2.07;;;1.33;;
27161;SDS011;54464;50.558;9.704;2023-07-28T08:20:17;1.23;;;1.13;;
27161;SDS011;54464;50.558;9.704;2023-07-28T08:22:43;1.60;;;1.50;;
27161;SDS011;54464;50.558;9.704;2023-07-28T08:25:08;1.53;;;1.30;;
27161;SDS011;54464;50.558;9.704;2023-07-28T08:27:34;1.40;;;1.30;;
27161;SDS011;54464;50.558;9.704;2023-07-28T08:29:59;1.40;;;1.20;;
27161;SDS011;54464;50.558;9.704;2023-07-28T08:32:25;1.33;;;1.20;;
27161;SDS011;54464;50.558;9.704;2023-07-28T08:34:51;1.73;;;1.37;;
27161;SDS011;54464;50.558;9.704;2023-07-28T08:37:16;1.57;;;1.47;;
27161;SDS011;54464;50.558;9.704;2023-07-28T08:39:42;1.07;;;1.07;;
27161;SDS011;54464;50.558;9.704;2023-07-28T08:42:08;1.10;;;1.00;;
27161;SDS011;54464;50.558;9.704;2023-07-28T08:44:34;0.97;;;0.97;;
27161;SDS011;54464;50.558;9.704;2023-07-28T08:47:00;1.63;;;1.17;;
27161;SDS011;54464;50.558;9.704;2023-07-28T08:49:27;2.13;;;1.10;;
27161;SDS011;54464;50.558;9.704;2023-07-28T08:51:57;1.63;;;1.30;;
27161;SDS011;54464;50.558;9.704;2023-07-28T08:54:23;2.40;;;1.10;;
27161;SDS011;54464;50.558;9.704;2023-07-28T08:56:49;1.40;;;1.30;;
27161;SDS011;54464;50.558;9.704;2023-07-28T08:59:24;1.50;;;1.40;;
27161;SDS011;54464;50.558;9.704;2023-07-28T09:01:55;1.40;;;1.30;;
27161;SDS011;54464;50.558;9.704;2023-07-28T09:04:25;1.30;;;1.20;;
27161;SDS011;54464;50.558;9.704;2023-07-28T09:06:51;1.67;;;1.40;;
27161;SDS011;54464;50.558;9.704;2023-07-28T09:09:21;1.37;;;1.27;;
27161;SDS011;54464;50.558;9.704;2023-07-28T09:11:48;1.30;;;1.20;;
27161;SDS011;54464;50.558;9.704;2023-07-28T09:14:16;1.70;;;1.20;;
27161;SDS011;54464;50.558;9.704;2023-07-28T09:16:43;1.37;;;1.27;;
27161;SDS011;54464;50.558;9.704;2023-07-28T09:19:10;1.27;;;1.17;;
27161;SDS011;54464;50.558;9.704;2023-07-28T09:21:37;1.10;;;1.10;;
27161;SDS011;54464;50.558;9.704;2023-07-28T09:24:03;1.30;;;1.20;;
27161;SDS011;54464;50.558;9.704;2023-07-28T09:26:37;1.77;;;1.67;;
27161;SDS011;54464;50.558;9.704;2023-07-28T09:29:14;2.47;;;2.37;;
27161;SDS011;54464;50.558;9.704;2023-07-28T09:31:41;2.67;;;2.47;;
27161;SDS011;54464;50.558;9.704;2023-07-28T09:34:08;2.70;;;2.50;;
27161;SDS011;54464;50.558;9.704;2023-07-28T09:36:34;2.47;;;2.27;;
27161;SDS011;54464;50.558;9.704;2023-07-28T09:39:01;3.00;;;2.80;;
27161;SDS011;54464;50.558;9.704;2023-07-28T09:41:30;2.90;;;2.70;;
27161;SDS011;54464;50.558;9.704;2023-07-28T09:43:57;3.57;;;3.13;;
27161;SDS011;54464;50.558;9.704;2023-07-28T09:46:23;3.80;;;3.50;;
27161;SDS011;54464;50.558;9.704;2023-07-28T09:48:52;3.73;;;3.43;;
27161;SDS011;54464;50.558;9.704;2023-07-28T09:51:21;3.70;;;3.40;;
27161;SDS011;54464;50.558;9.704;2023-07-28T09:53:55;3.70;;;3.40;;
27161;SDS011;54464;50.558;9.704;2023-07-28T09:56:26;3.97;;;3.40;;
27161;SDS011;54464;50.558;9.704;2023-07-28T09:58:54;3.53;;;3.33;;
27161;SDS011;54464;50.558;9.704;2023-07-28T10:01:22;4.07;;;3.77;;
27161;SDS011;54464;50.558;9.704;2023-07-28T10:03:48;4.53;;;4.13;;
27161;SDS011;54464;50.558;9.704;2023-07-28T10:06:15;5.00;;;4.60;;
27161;SDS011;54464;50.558;9.704;2023-07-28T10:08:44;2.80;;;2.60;;
27161;SDS011;54464;50.558;9.704;2023-07-28T10:11:14;2.93;;;2.73;;
27161;SDS011;54464;50.558;9.704;2023-07-28T10:13:44;2.83;;;2.60;;
27161;SDS011;54464;50.558;9.704;2023-07-28T10:16:11;6.07;;;3.30;;
27161;SDS011;54464;50.558;9.704;2023-07-28T10:18:39;4.10;;;3.70;;
27161;SDS011;54464;50.558;9.704;2023-07-28T10:21:15;3.93;;;3.63;;
27161;SDS011;54464;50.558;9.704;2023-07-28T10:23:42;4.67;;;4.33;;
27161;SDS011;54464;50.558;9.704;2023-07-28T10:26:09;3.20;;;3.00;;
27161;SDS011;54464;50.558;9.704;2023-07-28T10:28:35;2.60;;;2.40;;
27161;SDS011;54464;50.558;9.704;2023-07-28T10:31:10;2.50;;;2.37;;
27161;SDS011;54464;50.558;9.704;2023-07-28T10:33:37;2.50;;;2.30;;
27161;SDS011;54464;50.558;9.704;2023-07-28T10:36:17;3.10;;;2.80;;
27161;SDS011;54464;50.558;9.704;2023-07-28T10:41:29;2.40;;;2.30;;
27161;SDS011;54464;50.558;9.704;2023-07-28T10:43:58;1.93;;;1.83;;
27161;SDS011;54464;50.558;9.704;2023-07-28T10:46:23;1.50;;;1.40;;
27161;SDS011;54464;50.558;9.704;2023-07-28T10:48:51;1.80;;;1.70;;
27161;SDS011;54464;50.558;9.704;2023-07-28T10:51:22;1.50;;;1.40;;
27161;SDS011;54464;50.558;9.704;2023-07-28T10:53:56;1.13;;;1.00;;
27161;SDS011;54464;50.558;9.704;2023-07-28T10:56:23;1.60;;;1.10;;
27161;SDS011;54464;50.558;9.704;2023-07-28T10:59:22;1.23;;;1.13;;
27161;SDS011;54464;50.558;9.704;2023-07-28T11:01:40;0.93;;;0.93;;
27161;SDS011;54464;50.558;9.704;2023-07-28T11:04:13;1.23;;;1.20;;
27161;SDS011;54464;50.558;9.704;2023-07-28T11:06:46;1.87;;;1.47;;
27161;SDS011;54464;50.558;9.704;2023-07-28T11:09:14;1.47;;;1.13;;
27161;SDS011;54464;50.558;9.704;2023-07-28T11:11:41;1.30;;;1.20;;
27161;SDS011;54464;50.558;9.704;2023-07-28T11:14:08;1.30;;;1.20;;
27161;SDS011;54464;50.558;9.704;2023-07-28T11:16:40;1.20;;;1.10;;
27161;SDS011;54464;50.558;9.704;2023-07-28T11:19:07;1.50;;;1.30;;
27161;SDS011;54464;50.558;9.704;2023-07-28T11:21:36;2.50;;;1.40;;
27161;SDS011;54464;50.558;9.704;2023-07-28T11:24:09;1.10;;;1.10;;
27161;SDS011;54464;50.558;9.704;2023-07-28T11:26:36;1.50;;;1.40;;
27161;SDS011;54464;50.558;9.704;2023-07-28T11:29:02;1.70;;;1.20;;
27161;SDS011;54464;50.558;9.704;2023-07-28T11:31:29;2.90;;;1.10;;
27161;SDS011;54464;50.558;9.704;2023-07-28T11:33:55;1.03;;;0.90;;
27161;SDS011;54464;50.558;9.704;2023-07-28T11:36:21;2.20;;;0.90;;
27161;SDS011;54464;50.558;9.704;2023-07-28T11:38:51;0.90;;;0.90;;
27161;SDS011;54464;50.558;9.704;2023-07-28T11:41:18;0.70;;;0.70;;
27161;SDS011;54464;50.558;9.704;2023-07-28T11:43:45;0.70;;;0.70;;
27161;SDS011;54464;50.558;9.704;2023-07-28T11:49:06;1.00;;;0.73;;
27161;SDS011;54464;50.558;9.704;2023-07-28T11:51:44;0.53;;;0.53;;
27161;SDS011;54464;50.558;9.704;2023-07-28T11:54:11;0.80;;;0.63;;
27161;SDS011;54464;50.558;9.704;2023-07-28T11:56:41;1.03;;;0.57;;
27161;SDS011;54464;50.558;9.704;2023-07-28T11:59:08;0.60;;;0.60;;
27161;SDS011;54464;50.558;9.704;2023-07-28T12:01:35;1.17;;;0.70;;
27161;SDS011;54464;50.558;9.704;2023-07-28T12:04:23;0.50;;;0.50;;
27161;SDS011;54464;50.558;9.704;2023-07-28T12:07:00;1.23;;;0.70;;
27161;SDS011;54464;50.558;9.704;2023-07-28T12:09:33;2.70;;;0.70;;
27161;SDS011;54464;50.558;9.704;2023-07-28T12:12:10;0.60;;;0.60;;
27161;SDS011;54464;50.558;9.704;2023-07-28T12:14:35;0.60;;;0.60;;
27161;SDS011;54464;50.558;9.704;2023-07-28T12:17:01;2.23;;;0.70;;
27161;SDS011;54464;50.558;9.704;2023-07-28T12:19:27;1.13;;;0.50;;
27161;SDS011;54464;50.558;9.704;2023-07-28T12:21:53;2.00;;;0.60;;
27161;SDS011;54464;50.558;9.704;2023-07-28T12:24:19;1.37;;;0.60;;
27161;SDS011;54464;50.558;9.704;2023-07-28T12:26:45;0.90;;;0.70;;
27161;SDS011;54464;50.558;9.704;2023-07-28T12:29:12;1.20;;;0.87;;
27161;SDS011;54464;50.558;9.704;2023-07-28T12:31:38;1.63;;;0.43;;
27161;SDS011;54464;50.558;9.704;2023-07-28T12:34:04;0.60;;;0.60;;
27161;SDS011;54464;50.558;9.704;2023-07-28T12:36:29;0.80;;;0.80;;
27161;SDS011;54464;50.558;9.704;2023-07-28T12:38:55;0.60;;;0.50;;
27161;SDS011;54464;50.558;9.704;2023-07-28T12:41:21;0.67;;;0.40;;
27161;SDS011;54464;50.558;9.704;2023-07-28T12:43:46;0.70;;;0.60;;
27161;SDS011;54464;50.558;9.704;2023-07-28T12:46:12;0.70;;;0.60;;
27161;SDS011;54464;50.558;9.704;2023-07-28T12:48:37;1.97;;;0.90;;
27161;SDS011;54464;50.558;9.704;2023-07-28T12:51:03;0.77;;;0.70;;
27161;SDS011;54464;50.558;9.704;2023-07-28T12:53:28;0.90;;;0.80;;
27161;SDS011;54464;50.558;9.704;2023-07-28T12:55:54;1.23;;;0.60;;
27161;SDS011;54464;50.558;9.704;2023-07-28T12:58:20;0.83;;;0.70;;
27161;SDS011;54464;50.558;9.704;2023-07-28T13:00:46;0.77;;;0.60;;
27161;SDS011;54464;50.558;9.704;2023-07-28T13:03:11;0.47;;;0.47;;
27161;SDS011;54464;50.558;9.704;2023-07-28T13:05:37;1.10;;;0.50;;
27161;SDS011;54464;50.558;9.704;2023-07-28T13:08:02;0.53;;;0.50;;
27161;SDS011;54464;50.558;9.704;2023-07-28T13:10:28;1.67;;;0.50;;
27161;SDS011;54464;50.558;9.704;2023-07-28T13:12:54;0.70;;;0.70;;
27161;SDS011;54464;50.558;9.704;2023-07-28T13:15:19;0.50;;;0.50;;
27161;SDS011;54464;50.558;9.704;2023-07-28T13:17:45;0.70;;;0.50;;
27161;SDS011;54464;50.558;9.704;2023-07-28T13:20:11;0.70;;;0.60;;
27161;SDS011;54464;50.558;9.704;2023-07-28T13:22:36;0.67;;;0.40;;
27161;SDS011;54464;50.558;9.704;2023-07-28T13:25:02;0.60;;;0.60;;
27161;SDS011;54464;50.558;9.704;2023-07-28T13:27:28;0.50;;;0.50;;
27161;SDS011;54464;50.558;9.704;2023-07-28T13:29:54;0.63;;;0.60;;
27161;SDS011;54464;50.558;9.704;2023-07-28T13:32:23;0.50;;;0.50;;
27161;SDS011;54464;50.558;9.704;2023-07-28T13:34:50;0.60;;;0.60;;
27161;SDS011;54464;50.558;9.704;2023-07-28T13:37:17;0.67;;;0.50;;
27161;SDS011;54464;50.558;9.704;2023-07-28T13:39:42;0.83;;;0.63;;
27161;SDS011;54464;50.558;9.704;2023-07-28T13:42:08;0.57;;;0.57;;
27161;SDS011;54464;50.558;9.704;2023-07-28T13:44:34;0.70;;;0.70;;
27161;SDS011;54464;50.558;9.704;2023-07-28T13:46:59;0.70;;;0.70;;
27161;SDS011;54464;50.558;9.704;2023-07-28T13:49:25;0.80;;;0.80;;
27161;SDS011;54464;50.558;9.704;2023-07-28T13:51:51;1.00;;;0.93;;
27161;SDS011;54464;50.558;9.704;2023-07-28T13:54:17;1.10;;;1.00;;
27161;SDS011;54464;50.558;9.704;2023-07-28T13:56:42;1.30;;;1.20;;
27161;SDS011;54464;50.558;9.704;2023-07-28T13:59:08;2.33;;;1.60;;
27161;SDS011;54464;50.558;9.704;2023-07-28T14:01:33;1.60;;;1.50;;
27161;SDS011;54464;50.558;9.704;2023-07-28T14:03:59;1.60;;;1.50;;
27161;SDS011;54464;50.558;9.704;2023-07-28T14:06:24;1.63;;;1.50;;
27161;SDS011;54464;50.558;9.704;2023-07-28T14:08:50;1.60;;;1.50;;
27161;SDS011;54464;50.558;9.704;2023-07-28T14:11:16;1.93;;;1.40;;
27161;SDS011;54464;50.558;9.704;2023-07-28T14:13:41;2.00;;;1.80;;
27161;SDS011;54464;50.558;9.704;2023-07-28T14:16:07;1.90;;;1.80;;
27161;SDS011;54464;50.558;9.704;2023-07-28T14:18:34;2.80;;;2.60;;
27161;SDS011;54464;50.558;9.704;2023-07-28T14:21:00;3.10;;;2.47;;
27161;SDS011;54464;50.558;9.704;2023-07-28T14:23:26;3.63;;;2.80;;
27161;SDS011;54464;50.558;9.704;2023-07-28T14:25:53;2.67;;;2.43;;
27161;SDS011;54464;50.558;9.704;2023-07-28T14:28:19;2.97;;;2.77;;
27161;SDS011;54464;50.558;9.704;2023-07-28T14:30:45;3.13;;;2.83;;
27161;SDS011;54464;50.558;9.704;2023-07-28T14:33:14;3.53;;;3.00;;
27161;SDS011;54464;50.558;9.704;2023-07-28T14:35:42;2.83;;;2.63;;
27161;SDS011;54464;50.558;9.704;2023-07-28T14:38:09;3.27;;;2.40;;
27161;SDS011;54464;50.558;9.704;2023-07-28T14:40:35;2.60;;;2.40;;
27161;SDS011;54464;50.558;9.704;2023-07-28T14:43:02;3.33;;;2.40;;
27161;SDS011;54464;50.558;9.704;2023-07-28T14:45:28;2.33;;;2.13;;
27161;SDS011;54464;50.558;9.704;2023-07-28T14:47:54;2.50;;;2.30;;
27161;SDS011;54464;50.558;9.704;2023-07-28T14:50:20;3.37;;;2.43;;